createdAt,value
2022-09-25T00:01:01.429Z,11.25
2022-09-25T00:03:29.827Z,11.25
2022-09-25T00:06:09.055Z,11.19
2022-09-25T00:08:36.303Z,11.17
2022-09-25T00:11:09.055Z,11.14
2022-09-25T00:13:36.127Z,11.07
2022-09-25T00:16:03.986Z,10.91
2022-09-25T00:18:49.374Z,10.85
2022-09-25T00:21:17.144Z,10.86
2022-09-25T00:23:45.062Z,10.77
2022-09-25T00:26:13.659Z,10.72
2022-09-25T00:28:41.373Z,10.73
2022-09-25T00:31:08.796Z,10.66
2022-09-25T00:33:36.094Z,10.64
2022-09-25T00:36:08.298Z,10.60
2022-09-25T00:38:36.727Z,10.64
2022-09-25T00:41:05.159Z,10.62
2022-09-25T00:43:42.235Z,10.59
2022-09-25T00:46:18.620Z,10.52
2022-09-25T00:48:59.979Z,10.43
2022-09-25T00:51:34.872Z,10.33
2022-09-25T00:54:06.575Z,10.27
2022-09-25T00:56:41.926Z,10.20
2022-09-25T00:59:13.068Z,10.16
2022-09-25T01:01:39.910Z,10.11
2022-09-25T01:04:07.396Z,10.07
2022-09-25T01:06:35.541Z,10.04
2022-09-25T01:09:02.201Z,10.05
2022-09-25T01:11:31.002Z,9.98
2022-09-25T01:14:00.598Z,9.90
2022-09-25T01:16:36.513Z,9.75
2022-09-25T01:19:21.683Z,9.74
2022-09-25T01:22:26.428Z,9.70
2022-09-25T01:25:14.018Z,9.66
2022-09-25T01:28:16.302Z,9.59
2022-09-25T01:30:48.327Z,9.44
2022-09-25T01:33:18.626Z,9.33
2022-09-25T01:36:02.980Z,9.27
2022-09-25T01:38:36.711Z,9.29
2022-09-25T01:41:37.658Z,9.39
2022-09-25T01:44:13.520Z,9.39
2022-09-25T01:46:47.350Z,9.45
2022-09-25T01:49:24.880Z,9.42
2022-09-25T01:51:55.740Z,9.34
2022-09-25T01:54:30.855Z,9.30
2022-09-25T01:57:07.327Z,9.30
2022-09-25T01:59:39.281Z,9.33
2022-09-25T02:02:10.311Z,9.23
2022-09-25T02:04:44.929Z,9.26
2022-09-25T02:07:18.335Z,9.23
2022-09-25T02:09:51.319Z,9.17
2022-09-25T02:12:26.835Z,9.17
2022-09-25T02:15:03.558Z,9.17
2022-09-25T02:17:56.488Z,9.21
2022-09-25T02:20:33.124Z,9.18
2022-09-25T02:23:13.442Z,9.09
2022-09-25T02:26:07.300Z,8.97
2022-09-25T02:28:33.927Z,8.94
2022-09-25T02:31:02.932Z,8.93
2022-09-25T02:33:30.038Z,8.93
2022-09-25T02:35:58.799Z,8.99
2022-09-25T02:38:25.274Z,9.09
2022-09-25T02:41:13.375Z,9.07
2022-09-25T02:43:53.782Z,9.01
2022-09-25T02:46:41.457Z,8.93
2022-09-25T02:49:18.479Z,8.99
2022-09-25T02:51:57.353Z,8.89
2022-09-25T02:54:49.905Z,8.73
2022-09-25T02:57:28.727Z,8.68
2022-09-25T03:00:00.756Z,8.66
2022-09-25T03:02:29.132Z,8.67
2022-09-25T03:04:57.848Z,8.72
2022-09-25T03:07:24.805Z,8.70
2022-09-25T03:09:54.999Z,8.71
2022-09-25T03:12:21.606Z,8.72
2022-09-25T03:14:48.057Z,8.74
2022-09-25T03:17:17.553Z,8.69
2022-09-25T03:19:44.040Z,8.58
2022-09-25T03:22:10.851Z,8.52
2022-09-25T03:24:38.451Z,8.55
2022-09-25T03:27:04.860Z,8.55
2022-09-25T03:29:31.287Z,8.54
2022-09-25T03:31:57.698Z,8.54
2022-09-25T03:34:24.112Z,8.58
2022-09-25T03:36:50.520Z,8.67
2022-09-25T03:39:19.761Z,8.67
2022-09-25T03:41:46.226Z,8.69
2022-09-25T03:44:12.813Z,8.71
2022-09-25T03:46:39.421Z,8.70
2022-09-25T03:49:06.661Z,8.63
2022-09-25T03:51:33.962Z,8.63
2022-09-25T03:54:00.427Z,8.64
2022-09-25T03:56:29.814Z,8.64
2022-09-25T03:58:56.939Z,8.56
2022-09-25T04:01:24.782Z,8.45
2022-09-25T04:03:51.909Z,8.45
2022-09-25T04:06:22.527Z,8.40
2022-09-25T04:08:50.006Z,8.41
2022-09-25T04:11:18.191Z,8.39
2022-09-25T04:13:45.138Z,8.42
2022-09-25T04:16:12.922Z,8.46
2022-09-25T04:18:42.909Z,8.44
2022-09-25T04:21:11.744Z,8.42
2022-09-25T04:23:39.059Z,8.38
2022-09-25T04:26:06.114Z,8.30
2022-09-25T04:28:33.093Z,8.33
2022-09-25T04:31:00.259Z,8.29
2022-09-25T04:33:45.462Z,8.17
2022-09-25T04:36:12.346Z,8.18
2022-09-25T04:38:38.848Z,8.21
2022-09-25T04:41:06.115Z,8.23
2022-09-25T04:43:33.144Z,8.29
2022-09-25T04:46:04.885Z,8.23
2022-09-25T04:48:32.362Z,8.32
2022-09-25T04:50:58.826Z,8.36
2022-09-25T04:53:26.587Z,8.33
2022-09-25T04:55:54.350Z,8.34
2022-09-25T04:58:21.253Z,8.33
2022-09-25T05:00:47.748Z,8.31
2022-09-25T05:03:14.333Z,8.24
2022-09-25T05:05:40.828Z,8.22
2022-09-25T05:08:07.482Z,8.29
2022-09-25T05:10:39.566Z,8.34
2022-09-25T05:13:06.871Z,8.33
2022-09-25T05:15:33.763Z,8.27
2022-09-25T05:18:12.458Z,8.25
2022-09-25T05:20:39.104Z,8.20
2022-09-25T05:23:05.510Z,8.10
2022-09-25T05:25:32.321Z,8.06
2022-09-25T05:28:00.985Z,8.03
2022-09-25T05:30:30.334Z,8.07
2022-09-25T05:33:00.647Z,8.09
2022-09-25T05:35:29.938Z,8.10
2022-09-25T05:37:57.056Z,8.10
2022-09-25T05:40:24.143Z,8.00
2022-09-25T05:42:51.402Z,7.90
2022-09-25T05:45:20.274Z,7.92
2022-09-25T05:47:47.269Z,8.06
2022-09-25T05:50:15.882Z,8.11
2022-09-25T05:52:42.768Z,8.16
2022-09-25T05:55:10.688Z,8.16
2022-09-25T05:57:38.138Z,8.21
2022-09-25T06:00:08.551Z,8.23
2022-09-25T06:02:35.222Z,8.14
2022-09-25T06:05:01.879Z,8.12
2022-09-25T06:07:28.306Z,8.14
2022-09-25T06:09:54.779Z,8.23
2022-09-25T06:12:23.088Z,8.28
2022-09-25T06:14:49.602Z,8.31
2022-09-25T06:17:16.597Z,8.24
2022-09-25T06:19:43.044Z,8.26
2022-09-25T06:22:09.465Z,8.35
2022-09-25T06:24:35.903Z,8.38
2022-09-25T06:27:02.343Z,8.35
2022-09-25T06:29:28.766Z,8.47
2022-09-25T06:31:55.199Z,8.60
2022-09-25T06:34:23.024Z,8.64
2022-09-25T06:36:49.524Z,8.72
2022-09-25T06:39:15.974Z,8.77
2022-09-25T06:41:42.423Z,8.77
2022-09-25T06:44:09.119Z,8.82
2022-09-25T06:46:38.621Z,8.83
2022-09-25T06:49:05.040Z,8.96
2022-09-25T06:51:35.138Z,9.00
2022-09-25T06:54:02.334Z,9.07
2022-09-25T06:56:28.797Z,9.17
2022-09-25T06:58:55.230Z,9.27
2022-09-25T07:01:21.780Z,9.39
2022-09-25T07:03:49.748Z,9.49
2022-09-25T07:06:19.583Z,9.67
2022-09-25T07:08:48.160Z,9.91
2022-09-25T07:11:20.669Z,10.08
2022-09-25T07:13:47.890Z,10.25
2022-09-25T07:16:19.526Z,10.38
2022-09-25T07:18:46.909Z,10.54
2022-09-25T07:21:21.625Z,10.68
2022-09-25T07:23:49.213Z,10.85
2022-09-25T07:26:22.298Z,11.05
2022-09-25T07:28:57.920Z,11.23
2022-09-25T07:31:29.504Z,11.39
2022-09-25T07:33:58.651Z,11.57
2022-09-25T07:36:25.122Z,11.76
2022-09-25T07:38:52.981Z,11.90
2022-09-25T07:41:22.571Z,12.06
2022-09-25T07:44:24.360Z,12.25
2022-09-25T07:46:46.690Z,12.42
2022-09-25T07:49:13.786Z,12.57
2022-09-25T07:51:40.471Z,12.72
2022-09-25T07:54:07.403Z,12.88
2022-09-25T07:56:38.365Z,13.03
2022-09-25T07:59:04.986Z,13.19
2022-09-25T08:01:31.463Z,13.24
2022-09-25T08:03:57.903Z,13.39
2022-09-25T08:06:24.322Z,13.54
2022-09-25T08:08:50.787Z,13.62
2022-09-25T08:11:18.348Z,13.69
2022-09-25T08:13:46.331Z,13.76
2022-09-25T08:16:15.907Z,13.93
2022-09-25T08:18:46.085Z,14.05
2022-09-25T08:21:14.539Z,14.17
2022-09-25T08:23:49.395Z,14.25
2022-09-25T08:26:17.200Z,14.40
2022-09-25T08:28:44.265Z,14.57
2022-09-25T08:31:10.918Z,14.65
2022-09-25T08:33:37.403Z,14.63
2022-09-25T08:36:05.450Z,14.86
2022-09-25T08:38:33.253Z,14.76
2022-09-25T08:41:04.666Z,14.82
2022-09-25T08:43:33.509Z,14.91
2022-09-25T08:46:22.708Z,15.06
2022-09-25T08:49:06.536Z,15.10
2022-09-25T08:51:41.465Z,15.17
2022-09-25T08:54:14.390Z,15.33
2022-09-25T08:56:41.234Z,15.20
2022-09-25T08:59:34.065Z,15.11
2022-09-25T09:02:09.378Z,15.26
2022-09-25T09:04:46.229Z,15.44
2022-09-25T09:07:26.853Z,15.55
2022-09-25T09:10:26.816Z,15.28
2022-09-25T09:12:59.724Z,15.32
2022-09-25T09:16:05.298Z,15.39
2022-09-25T09:18:38.194Z,15.27
2022-09-25T09:21:22.639Z,15.12
2022-09-25T09:24:15.103Z,15.19
2022-09-25T09:26:49.998Z,15.43
2022-09-25T09:29:49.810Z,15.41
2022-09-25T09:32:39.188Z,15.20
2022-09-25T09:35:24.094Z,15.23
2022-09-25T09:38:15.859Z,15.44
2022-09-25T09:41:17.145Z,15.45
2022-09-25T09:43:57.759Z,15.54
2022-09-25T09:46:47.362Z,15.65
2022-09-25T09:49:22.477Z,15.63
2022-09-25T09:51:56.314Z,15.50
2022-09-25T09:54:48.069Z,15.44
2022-09-25T09:57:59.102Z,15.42
2022-09-25T10:00:25.624Z,15.44
2022-09-25T10:03:03.486Z,15.32
2022-09-25T10:05:56.599Z,15.07
2022-09-25T10:08:23.256Z,14.79
2022-09-25T10:10:54.831Z,14.69
2022-09-25T10:13:26.665Z,14.67
2022-09-25T10:16:06.296Z,14.72
2022-09-25T10:19:04.222Z,14.85
2022-09-25T10:21:38.743Z,15.08
2022-09-25T10:24:07.003Z,15.22
2022-09-25T10:26:37.848Z,15.29
2022-09-25T10:29:20.708Z,15.47
2022-09-25T10:34:17.775Z,15.51
2022-09-25T10:36:49.807Z,15.42
2022-09-25T10:39:44.001Z,15.36
2022-09-25T10:42:33.096Z,15.42
2022-09-25T10:44:59.560Z,15.38
2022-09-25T10:47:49.888Z,15.30
2022-09-25T10:50:26.024Z,15.33
2022-09-25T10:52:58.969Z,15.25
2022-09-25T10:55:37.722Z,15.27
2022-09-25T10:58:10.399Z,15.37
2022-09-25T11:00:51.760Z,15.40
2022-09-25T11:03:27.957Z,15.48
2022-09-25T11:06:01.278Z,15.45
2022-09-25T11:08:30.531Z,15.37
2022-09-25T11:10:59.192Z,15.30
2022-09-25T11:13:36.719Z,15.32
2022-09-25T11:16:10.166Z,15.26
2022-09-25T11:18:39.430Z,15.15
2022-09-25T11:21:16.883Z,15.07
2022-09-25T11:24:04.098Z,15.13
2022-09-25T11:27:06.978Z,15.32
2022-09-25T11:30:01.262Z,15.48
2022-09-25T11:32:47.764Z,15.60
2022-09-25T11:35:41.508Z,15.66
2022-09-25T11:38:45.686Z,15.70
2022-09-25T11:41:38.786Z,15.56
2022-09-25T11:44:21.373Z,15.31
2022-09-25T11:47:15.791Z,15.21
2022-09-25T11:49:42.738Z,15.13
2022-09-25T11:52:18.577Z,15.13
2022-09-25T11:55:22.686Z,15.24
2022-09-25T11:58:14.714Z,15.41
2022-09-25T12:01:14.962Z,15.52
2022-09-25T12:03:56.998Z,15.67
2022-09-25T12:06:48.215Z,15.89
2022-09-25T12:09:32.890Z,15.98
2022-09-25T12:12:13.253Z,15.88
2022-09-25T12:14:57.534Z,15.59
2022-09-25T12:17:53.193Z,15.51
2022-09-25T12:20:29.764Z,15.45
2022-09-25T12:23:14.971Z,15.55
2022-09-25T12:25:45.045Z,15.63
2022-09-25T12:28:40.004Z,15.67
2022-09-25T12:31:41.519Z,15.86
2022-09-25T12:34:25.178Z,16.03
2022-09-25T12:37:08.051Z,16.18
2022-09-25T12:39:43.164Z,16.22
2022-09-25T12:42:50.435Z,16.27
2022-09-25T12:45:24.502Z,16.26
2022-09-25T12:48:01.339Z,16.27
2022-09-25T12:50:38.658Z,16.26
2022-09-25T12:53:20.515Z,16.18
2022-09-25T12:55:54.133Z,16.12
2022-09-25T12:58:42.010Z,16.10
2022-09-25T13:01:37.821Z,16.17
2022-09-25T13:04:42.179Z,16.25
2022-09-25T13:07:17.820Z,16.35
2022-09-25T13:09:46.772Z,16.37
2022-09-25T13:12:30.938Z,16.46
2022-09-25T13:15:04.745Z,16.45
2022-09-25T13:17:31.445Z,16.56
2022-09-25T13:20:28.695Z,16.68
2022-09-25T13:23:13.889Z,16.55
2022-09-25T13:25:45.010Z,16.39
2022-09-25T13:28:20.321Z,16.25
2022-09-25T13:31:09.826Z,16.21
2022-09-25T13:33:50.307Z,16.07
2022-09-25T13:36:31.726Z,15.83
2022-09-25T13:39:20.985Z,15.75
2022-09-25T13:42:03.882Z,15.76
2022-09-25T13:44:42.951Z,15.70
2022-09-25T13:47:23.534Z,15.62
2022-09-25T13:49:55.117Z,15.58
2022-09-25T13:53:15.865Z,15.47
2022-09-25T13:56:03.277Z,15.45
2022-09-25T13:58:32.255Z,15.44
2022-09-25T14:01:00.228Z,15.36
2022-09-25T14:03:50.036Z,15.36
2022-09-25T14:06:22.690Z,15.28
2022-09-25T14:08:50.373Z,15.18
2022-09-25T14:11:22.967Z,15.15
2022-09-25T14:13:55.185Z,15.20
2022-09-25T14:16:29.946Z,15.07
2022-09-25T14:19:04.869Z,15.02
2022-09-25T14:21:34.967Z,15.05
2022-09-25T14:24:28.970Z,15.01
2022-09-25T14:26:58.794Z,15.00
2022-09-25T14:29:27.562Z,14.92
2022-09-25T14:32:03.058Z,14.95
2022-09-25T14:34:38.417Z,15.02
2022-09-25T14:37:12.441Z,14.99
2022-09-25T14:40:06.243Z,15.00
2022-09-25T14:42:45.807Z,15.04
2022-09-25T14:45:35.174Z,15.01
2022-09-25T14:48:05.720Z,15.03
2022-09-25T14:50:37.415Z,15.01
2022-09-25T14:53:10.477Z,14.94
2022-09-25T14:55:41.372Z,14.95
2022-09-25T14:58:12.144Z,14.97
2022-09-25T15:00:55.821Z,15.01
2022-09-25T15:03:30.264Z,15.05
2022-09-25T15:06:01.236Z,15.00
2022-09-25T15:08:30.627Z,15.07
2022-09-25T15:11:27.300Z,15.10
2022-09-25T15:13:56.820Z,15.04
2022-09-25T15:16:44.822Z,15.09
2022-09-25T15:19:20.682Z,15.19
2022-09-25T15:21:47.939Z,15.28
2022-09-25T15:24:18.906Z,15.30
2022-09-25T15:27:02.690Z,15.42
2022-09-25T15:29:44.041Z,15.50
2022-09-25T15:32:23.789Z,15.56
2022-09-25T15:34:50.802Z,15.59
2022-09-25T15:37:29.182Z,15.61
2022-09-25T15:40:00.518Z,15.46
2022-09-25T15:42:26.917Z,15.48
2022-09-25T15:44:57.088Z,15.46
2022-09-25T15:47:35.792Z,15.45
2022-09-25T15:50:13.390Z,15.67
2022-09-25T15:52:39.842Z,15.82
2022-09-25T15:55:13.877Z,15.83
2022-09-25T15:57:41.014Z,16.19
2022-09-25T16:00:35.338Z,16.18
2022-09-25T16:03:25.097Z,16.07
2022-09-25T16:05:52.423Z,15.91
2022-09-25T16:08:24.579Z,15.86
2022-09-25T16:11:17.223Z,15.75
2022-09-25T16:13:46.680Z,15.62
2022-09-25T16:16:17.966Z,15.65
2022-09-25T16:18:44.626Z,15.60
2022-09-25T16:21:29.021Z,15.54
2022-09-25T16:24:07.751Z,15.44
2022-09-25T16:26:42.001Z,15.35
2022-09-25T16:29:11.397Z,15.30
2022-09-25T16:31:41.284Z,15.25
2022-09-25T16:34:18.374Z,15.14
2022-09-25T16:36:46.025Z,15.10
2022-09-25T16:39:22.896Z,14.97
2022-09-25T16:41:50.210Z,14.88
2022-09-25T16:44:39.782Z,14.84
2022-09-25T16:47:20.128Z,14.80
2022-09-25T16:49:49.339Z,14.80
2022-09-25T16:52:20.486Z,14.72
2022-09-25T16:54:53.051Z,14.66
2022-09-25T16:57:21.519Z,14.66
2022-09-25T16:59:48.088Z,14.68
2022-09-25T17:02:35.167Z,14.63
2022-09-25T17:05:18.882Z,14.53
2022-09-25T17:07:47.356Z,14.43
2022-09-25T17:10:16.010Z,14.44
2022-09-25T17:12:46.018Z,14.42
2022-09-25T17:15:17.832Z,14.45
2022-09-25T17:17:44.394Z,14.42
2022-09-25T17:20:12.008Z,14.34
2022-09-25T17:22:39.033Z,14.38
2022-09-25T17:25:19.354Z,14.36
2022-09-25T17:27:45.772Z,14.27
2022-09-25T17:30:12.510Z,14.20
2022-09-25T17:32:39.002Z,14.17
2022-09-25T17:35:25.095Z,14.07
2022-09-25T17:37:52.634Z,14.04
2022-09-25T17:40:19.656Z,13.92
2022-09-25T17:42:46.075Z,13.85
2022-09-25T17:45:39.930Z,13.75
2022-09-25T17:48:06.332Z,13.66
2022-09-25T17:50:35.469Z,13.63
2022-09-25T17:53:05.041Z,13.56
2022-09-25T17:55:32.235Z,13.48
2022-09-25T17:57:58.716Z,13.32
2022-09-25T18:00:25.682Z,13.20
2022-09-25T18:02:52.223Z,13.15
2022-09-25T18:05:19.349Z,13.08
2022-09-25T18:07:45.856Z,12.91
2022-09-25T18:10:13.630Z,12.84
2022-09-25T18:12:40.205Z,12.83
2022-09-25T18:15:07.517Z,12.79
2022-09-25T18:17:34.079Z,12.78
2022-09-25T18:20:19.223Z,12.79
2022-09-25T18:22:45.817Z,12.78
2022-09-25T18:25:12.574Z,12.91
2022-09-25T18:27:41.714Z,12.89
2022-09-25T18:30:13.685Z,12.80
2022-09-25T18:32:40.115Z,12.86
2022-09-25T18:35:07.419Z,12.79
2022-09-25T18:37:33.933Z,12.70
2022-09-25T18:40:00.619Z,12.66
2022-09-25T18:42:27.067Z,12.60
2022-09-25T18:44:53.514Z,12.57
2022-09-25T18:47:20.093Z,12.52
2022-09-25T18:49:46.585Z,12.41
2022-09-25T18:52:13.109Z,12.36
2022-09-25T18:54:42.074Z,12.34
2022-09-25T18:57:12.606Z,12.32
2022-09-25T18:59:39.904Z,12.37
2022-09-25T19:02:16.564Z,12.33
2022-09-25T19:04:43.078Z,12.23
2022-09-25T19:07:09.481Z,12.14
2022-09-25T19:09:35.941Z,12.09
2022-09-25T19:12:03.716Z,12.12
2022-09-25T19:14:31.242Z,12.10
2022-09-25T19:16:57.688Z,12.02
2022-09-25T19:19:24.098Z,11.95
2022-09-25T19:21:50.517Z,11.94
2022-09-25T19:24:18.327Z,11.95
2022-09-25T19:26:45.065Z,11.95
2022-09-25T19:29:11.556Z,11.98
2022-09-25T19:31:38.188Z,11.98
2022-09-25T19:34:04.786Z,11.90
2022-09-25T19:36:34.145Z,11.86
2022-09-25T19:39:01.680Z,11.87
2022-09-25T19:41:33.360Z,11.85
2022-09-25T19:44:08.160Z,11.86
2022-09-25T19:46:40.202Z,11.81
2022-09-25T19:49:07.069Z,11.80
2022-09-25T19:51:33.662Z,11.81
2022-09-25T19:54:00.083Z,11.73
2022-09-25T19:56:26.899Z,11.63
2022-09-25T19:58:53.561Z,11.59
2022-09-25T20:01:27.372Z,11.50
2022-09-25T20:03:58.066Z,11.47
2022-09-25T20:06:26.431Z,11.46
2022-09-25T20:08:57.883Z,11.48
2022-09-25T20:11:25.271Z,11.49
2022-09-25T20:13:53.355Z,11.50
2022-09-25T20:16:25.041Z,11.50
2022-09-25T20:18:55.690Z,11.43
2022-09-25T20:21:22.187Z,11.42
2022-09-25T20:23:53.148Z,11.37
2022-09-25T20:26:20.682Z,11.28
2022-09-25T20:28:52.588Z,11.30
2022-09-25T20:31:19.407Z,11.33
2022-09-25T20:33:45.956Z,11.30
2022-09-25T20:36:13.768Z,11.27
2022-09-25T20:38:40.299Z,11.22
2022-09-25T20:41:13.645Z,11.19
2022-09-25T20:43:41.118Z,11.24
2022-09-25T20:46:12.505Z,11.27
2022-09-25T20:48:41.920Z,11.22
2022-09-25T20:51:10.706Z,11.24
2022-09-25T20:53:38.287Z,11.24
2022-09-25T20:56:10.196Z,11.19
2022-09-25T20:58:38.414Z,11.12
2022-09-25T21:01:12.230Z,11.06
2022-09-25T21:03:42.125Z,11.03
2022-09-25T21:06:12.622Z,11.06
2022-09-25T21:08:39.301Z,11.00
2022-09-25T21:11:06.245Z,11.01
2022-09-25T21:13:34.742Z,11.07
2022-09-25T21:16:10.524Z,11.05
2022-09-25T21:18:37.995Z,11.03
2022-09-25T21:21:09.981Z,11.02
2022-09-25T21:23:36.934Z,11.00
2022-09-25T21:26:11.954Z,11.01
2022-09-25T21:28:46.322Z,11.00
2022-09-25T21:31:48.969Z,10.98
2022-09-25T21:34:17.058Z,10.98
2022-09-25T21:36:43.846Z,11.01
2022-09-25T21:39:10.916Z,10.97
2022-09-25T21:41:37.442Z,10.98
2022-09-25T21:44:07.107Z,11.06
2022-09-25T21:46:34.872Z,11.10
2022-09-25T21:49:04.677Z,11.14
2022-09-25T21:51:37.147Z,11.15
2022-09-25T21:54:05.640Z,11.13
2022-09-25T21:56:32.070Z,11.15
2022-09-25T21:59:01.931Z,11.18
2022-09-25T22:01:35.916Z,11.24
2022-09-25T22:04:04.334Z,11.27
2022-09-25T22:06:37.255Z,11.29
2022-09-25T22:09:10.374Z,11.28
2022-09-25T22:11:38.231Z,11.32
2022-09-25T22:14:05.799Z,11.35
2022-09-25T22:16:35.017Z,11.40
2022-09-25T22:19:07.843Z,11.42
2022-09-25T22:21:35.274Z,11.43
2022-09-25T22:24:02.095Z,11.47
2022-09-25T22:26:29.011Z,11.48
2022-09-25T22:28:56.264Z,11.52
2022-09-25T22:31:26.490Z,11.65
2022-09-25T22:33:56.134Z,11.59
2022-09-25T22:36:23.323Z,11.57
2022-09-25T22:38:49.782Z,11.54
2022-09-25T22:41:16.250Z,11.59
2022-09-25T22:43:43.849Z,11.62
2022-09-25T22:46:13.249Z,11.66
2022-09-25T22:48:40.760Z,11.82
2022-09-25T22:51:11.299Z,11.91
2022-09-25T22:53:38.855Z,11.93
2022-09-25T22:56:15.917Z,11.89
2022-09-25T22:58:46.427Z,11.99
2022-09-25T23:01:17.175Z,12.03
2022-09-25T23:03:43.654Z,12.05
2022-09-25T23:06:10.098Z,12.10
2022-09-25T23:08:36.642Z,12.09
2022-09-25T23:11:07.855Z,12.04
2022-09-25T23:13:35.564Z,11.99
2022-09-25T23:16:08.450Z,12.04
2022-09-25T23:18:36.989Z,12.04
2022-09-25T23:21:04.630Z,11.99
2022-09-25T23:23:31.296Z,11.99
2022-09-25T23:26:06.316Z,12.02
2022-09-25T23:28:34.682Z,12.07
2022-09-25T23:31:13.141Z,12.09
2022-09-25T23:33:40.464Z,12.10
2022-09-25T23:36:10.262Z,12.12
2022-09-25T23:38:37.046Z,12.15
2022-09-25T23:41:32.766Z,12.10
2022-09-25T23:44:01.110Z,12.05
2022-09-25T23:46:32.033Z,12.09
2022-09-25T23:48:59.868Z,12.08
2022-09-25T23:51:27.210Z,12.07
2022-09-25T23:53:55.477Z,12.06
2022-09-25T23:56:24.349Z,12.07
2022-09-25T23:58:51.640Z,12.06
